TimePDT,TemperatureF,Dew PointF,Humidity,Sea Level PressureIn,VisibilityMPH,Wind Direction,Wind SpeedMPH,Gust SpeedMPH,PrecipitationIn,Events,Conditions,WindDirDegrees,DateUTC
12:56 AM,64.9,21.0,19,29.92,10.0,SSW,8.1,-,N/A,,Mostly Cloudy,210,2013-03-20 07:56:00
1:56 AM,66.0,19.9,17,29.90,10.0,South,11.5,-,N/A,,Mostly Cloudy,180,2013-03-20 08:56:00
2:56 AM,66.9,21.0,17,29.87,10.0,South,15.0,-,N/A,,Overcast,180,2013-03-20 09:56:00
3:56 AM,66.0,25.0,21,29.85,10.0,South,16.1,-,N/A,,Overcast,190,2013-03-20 10:56:00
4:56 AM,66.9,28.0,23,29.81,10.0,South,18.4,-,N/A,,Overcast,190,2013-03-20 11:56:00
5:56 AM,68.0,28.9,23,29.81,10.0,SSW,13.8,-,N/A,,Mostly Cloudy,200,2013-03-20 12:56:00
6:56 AM,68.0,32.0,26,29.80,10.0,SSW,21.9,31.1,N/A,,Overcast,210,2013-03-20 13:56:00
7:56 AM,68.0,33.1,27,29.82,10.0,SW,19.6,31.1,N/A,,Overcast,220,2013-03-20 14:56:00
8:56 AM,70.0,33.1,26,29.83,10.0,SSW,15.0,26.5,N/A,,Overcast,200,2013-03-20 15:56:00
9:56 AM,70.0,33.1,26,29.83,10.0,SSW,18.4,27.6,N/A,,Overcast,200,2013-03-20 16:56:00
10:56 AM,73.0,30.0,20,29.82,10.0,SW,18.4,28.8,N/A,,Overcast,220,2013-03-20 17:56:00
11:56 AM,73.9,28.0,18,29.82,10.0,SW,16.1,23.0,N/A,,Overcast,220,2013-03-20 18:56:00
12:56 PM,75.0,26.1,16,29.82,10.0,SW,18.4,-,N/A,,Overcast,220,2013-03-20 19:56:00
1:56 PM,75.0,25.0,16,29.80,10.0,SSW,15.0,-,N/A,,Overcast,210,2013-03-20 20:56:00
2:56 PM,75.9,26.1,16,29.78,10.0,SSW,12.7,-,N/A,,Overcast,210,2013-03-20 21:56:00
3:56 PM,75.0,27.0,17,29.77,10.0,SW,16.1,-,N/A,,Overcast,230,2013-03-20 22:56:00
4:56 PM,73.9,28.0,18,29.75,10.0,SW,11.5,-,N/A,,Overcast,230,2013-03-20 23:56:00
5:56 PM,73.9,28.0,18,29.74,10.0,SSW,8.1,-,N/A,,Overcast,210,2013-03-21 00:56:00
6:56 PM,73.9,28.0,18,29.73,10.0,SSW,9.2,-,N/A,,Overcast,200,2013-03-21 01:56:00
7:56 PM,72.0,28.0,20,29.71,10.0,SSW,9.2,-,N/A,,Overcast,210,2013-03-21 02:56:00
8:56 PM,72.0,28.9,20,29.71,10.0,SSW,12.7,-,N/A,,Overcast,210,2013-03-21 03:56:00
9:56 PM,69.1,32.0,25,29.70,10.0,SSW,12.7,21.9,N/A,,Overcast,200,2013-03-21 04:56:00
10:56 PM,68.0,33.1,27,29.70,10.0,SW,10.4,-,N/A,,Scattered Clouds,220,2013-03-21 05:56:00
11:56 PM,66.0,32.0,28,29.70,10.0,South,10.4,-,N/A,,Scattered Clouds,190,2013-03-21 06:56:00